Airport View

Enter AWOS ICAO identifier for current METAR.

ex. KFNL

KO54 080535Z AUTO 06003KT 10SM CLR 20/11 A3001 RMK AO1

8 Aug 2020 05:51

Frequency: 120.850

Phone: 530-623-3810

Other Area AWOS: KO86 - KRDD - KMHS - KRBL

TAF KRDD 072321Z 0800/0824 VRB06KT P6SM SKC FM080100 17009KT P6SM SKC FM080600 VRB04KT P6SM SKC FM081600 35010KT P6SM SKC